createdAt,value
2023-03-04T00:02:25.463Z,97.67
2023-03-04T00:04:52.234Z,94.48
2023-03-04T00:07:18.978Z,95.84
2023-03-04T00:09:46.247Z,99.18
2023-03-04T00:12:13.303Z,97.96
2023-03-04T00:14:39.952Z,98.09
2023-03-04T00:17:07.083Z,98.54
2023-03-04T00:19:35.042Z,100.00
2023-03-04T00:22:04.618Z,100.00
2023-03-04T00:24:31.860Z,100.00
2023-03-04T00:26:58.411Z,99.93
2023-03-04T00:29:25.127Z,99.66
2023-03-04T00:31:51.667Z,98.80
2023-03-04T00:34:18.260Z,98.46
2023-03-04T00:36:44.810Z,99.13
2023-03-04T00:39:13.531Z,100.00
2023-03-04T00:41:40.128Z,100.00
2023-03-04T00:44:06.908Z,100.00
2023-03-04T00:46:33.410Z,100.00
2023-03-04T00:48:59.969Z,100.00
2023-03-04T00:51:26.742Z,100.00
2023-03-04T00:53:54.199Z,100.00
2023-03-04T00:56:20.848Z,100.00
2023-03-04T00:58:47.314Z,100.00
2023-03-04T01:01:14.082Z,100.00
2023-03-04T01:03:42.417Z,100.00
2023-03-04T01:06:09.119Z,100.00
2023-03-04T01:08:36.240Z,100.00
2023-03-04T01:11:02.964Z,100.00
2023-03-04T01:13:29.680Z,100.00
2023-03-04T01:15:57.574Z,100.00
2023-03-04T01:18:24.610Z,100.00
2023-03-04T01:20:51.129Z,100.00
2023-03-04T01:23:17.673Z,100.00
2023-03-04T01:25:44.210Z,100.00
2023-03-04T01:28:11.432Z,100.00
2023-03-04T01:30:38.018Z,100.00
2023-03-04T01:33:04.610Z,100.00
2023-03-04T01:35:31.153Z,100.00
2023-03-04T01:37:57.631Z,100.00
2023-03-04T01:40:27.322Z,100.00
2023-03-04T01:42:53.829Z,100.00
2023-03-04T01:45:21.138Z,100.00
2023-03-04T01:47:49.474Z,100.00
2023-03-04T01:50:33.749Z,100.00
2023-03-04T01:53:01.093Z,100.00
2023-03-04T01:55:29.626Z,100.00
2023-03-04T01:57:57.513Z,100.00
2023-03-04T02:00:27.159Z,100.00
2023-03-04T02:02:57.428Z,100.00
2023-03-04T02:05:24.738Z,100.00
2023-03-04T02:07:52.512Z,100.00
2023-03-04T02:10:19.221Z,100.00
2023-03-04T02:12:46.086Z,100.00
2023-03-04T02:15:13.469Z,100.00
2023-03-04T02:17:40.183Z,100.00
2023-03-04T02:20:17.974Z,100.00
2023-03-04T02:22:54.344Z,100.00
2023-03-04T02:25:31.753Z,100.00
2023-03-04T02:27:58.380Z,100.00
2023-03-04T02:30:28.268Z,100.00
2023-03-04T02:32:54.836Z,100.00
2023-03-04T02:35:21.635Z,100.00
2023-03-04T02:37:48.507Z,100.00
2023-03-04T02:40:21.137Z,100.00
2023-03-04T02:42:47.715Z,100.00
2023-03-04T02:45:50.530Z,100.00
2023-03-04T02:48:20.316Z,100.00
2023-03-04T02:50:52.713Z,100.00
2023-03-04T02:53:20.831Z,100.00
2023-03-04T02:55:47.982Z,100.00
2023-03-04T02:58:18.622Z,100.00
2023-03-04T03:00:45.401Z,100.00
2023-03-04T03:03:11.933Z,100.00
2023-03-04T03:05:41.137Z,100.00
2023-03-04T03:08:07.976Z,100.00
2023-03-04T03:10:36.679Z,100.00
2023-03-04T03:13:03.250Z,100.00
2023-03-04T03:15:29.925Z,100.00
2023-03-04T03:17:57.210Z,100.00
2023-03-04T03:20:23.727Z,100.00
2023-03-04T03:22:50.292Z,100.00
2023-03-04T03:25:17.431Z,100.00
2023-03-04T03:27:43.975Z,100.00
2023-03-04T03:30:12.828Z,100.00
2023-03-04T03:32:39.309Z,100.00
2023-03-04T03:35:06.019Z,100.00
2023-03-04T03:37:32.733Z,100.00
2023-03-04T03:39:59.393Z,100.00
2023-03-04T03:42:26.078Z,100.00
2023-03-04T03:44:52.551Z,100.00
2023-03-04T03:47:19.180Z,100.00
2023-03-04T03:49:45.631Z,100.00
2023-03-04T03:52:14.006Z,100.00
2023-03-04T03:54:40.473Z,100.00
2023-03-04T03:57:06.922Z,100.00
2023-03-04T03:59:33.372Z,100.00
2023-03-04T04:01:59.990Z,100.00
2023-03-04T04:04:27.180Z,100.00
2023-03-04T04:06:53.689Z,100.00
2023-03-04T04:09:20.361Z,100.00
2023-03-04T04:11:46.820Z,100.00
2023-03-04T04:14:14.513Z,100.00
2023-03-04T04:16:41.161Z,100.00
2023-03-04T04:19:07.761Z,100.00
2023-03-04T04:21:34.238Z,100.00
2023-03-04T04:24:00.689Z,100.00
2023-03-04T04:26:27.224Z,100.00
2023-03-04T04:28:53.699Z,100.00
2023-03-04T04:31:20.283Z,100.00
2023-03-04T04:33:46.733Z,100.00
2023-03-04T04:36:15.566Z,100.00
2023-03-04T04:38:42.129Z,100.00
2023-03-04T04:41:25.252Z,100.00
2023-03-04T04:43:54.183Z,100.00
2023-03-04T04:46:22.460Z,100.00
2023-03-04T04:48:49.400Z,100.00
2023-03-04T04:51:16.257Z,100.00
2023-03-04T04:53:43.108Z,100.00
2023-03-04T04:56:13.780Z,100.00
2023-03-04T04:58:40.401Z,100.00
2023-03-04T05:01:07.347Z,100.00
2023-03-04T05:03:35.223Z,100.00
2023-03-04T05:06:01.750Z,100.00
2023-03-04T05:08:28.552Z,100.00
2023-03-04T05:10:55.180Z,100.00
2023-03-04T05:13:21.959Z,100.00
2023-03-04T05:15:50.778Z,100.00
2023-03-04T05:18:17.354Z,100.00
2023-03-04T05:20:44.957Z,100.00
2023-03-04T05:23:11.368Z,100.00
2023-03-04T05:25:37.778Z,100.00
2023-03-04T05:28:04.983Z,100.00
2023-03-04T05:30:31.382Z,100.00
2023-03-04T05:32:57.837Z,100.00
2023-03-04T05:35:24.302Z,100.00
2023-03-04T05:37:50.807Z,100.00
2023-03-04T05:40:18.080Z,100.00
2023-03-04T05:42:45.418Z,100.00
2023-03-04T05:45:12.006Z,100.00
2023-03-04T05:47:38.421Z,100.00
2023-03-04T05:50:05.184Z,100.00
2023-03-04T05:52:31.592Z,100.00
2023-03-04T05:54:58.054Z,100.00
2023-03-04T05:57:24.601Z,100.00
2023-03-04T05:59:51.070Z,100.00
2023-03-04T06:02:17.649Z,100.00
2023-03-04T06:04:44.084Z,100.00
2023-03-04T06:07:10.616Z,100.00
2023-03-04T06:09:37.423Z,100.00
2023-03-04T06:12:04.016Z,100.00
2023-03-04T06:14:30.735Z,100.00
2023-03-04T06:16:57.256Z,100.00
2023-03-04T06:19:23.823Z,100.00
2023-03-04T06:21:50.334Z,100.00
2023-03-04T06:24:16.919Z,100.00
2023-03-04T06:26:43.438Z,100.00
2023-03-04T06:29:10.289Z,100.00
2023-03-04T06:31:36.892Z,100.00
2023-03-04T06:34:04.165Z,100.00
2023-03-04T06:36:34.678Z,100.00
2023-03-04T06:39:05.503Z,100.00
2023-03-04T06:41:32.229Z,100.00
2023-03-04T06:44:02.357Z,100.00
2023-03-04T06:46:30.463Z,100.00
2023-03-04T06:48:57.228Z,100.00
2023-03-04T06:51:23.717Z,100.00
2023-03-04T06:53:50.600Z,100.00
2023-03-04T06:56:17.337Z,100.00
2023-03-04T06:58:44.607Z,100.00
2023-03-04T07:01:12.544Z,100.00
2023-03-04T07:03:39.112Z,100.00
2023-03-04T07:06:05.808Z,100.00
2023-03-04T07:08:32.549Z,100.00
2023-03-04T07:10:59.006Z,100.00
2023-03-04T07:13:26.548Z,100.00
2023-03-04T07:15:53.496Z,100.00
2023-03-04T07:18:20.223Z,100.00
2023-03-04T07:20:46.696Z,100.00
2023-03-04T07:23:13.184Z,100.00
2023-03-04T07:25:44.918Z,100.00
2023-03-04T07:28:11.420Z,100.00
2023-03-04T07:30:38.012Z,100.00
2023-03-04T07:33:04.498Z,100.00
2023-03-04T07:35:31.047Z,100.00
2023-03-04T07:37:57.568Z,100.00
2023-03-04T07:40:24.326Z,100.00
2023-03-04T07:42:51.850Z,100.00
2023-03-04T07:45:18.719Z,100.00
2023-03-04T07:47:45.937Z,100.00
2023-03-04T07:50:15.851Z,100.00
2023-03-04T07:52:48.080Z,100.00
2023-03-04T07:55:15.932Z,100.00
2023-03-04T07:57:44.453Z,100.00
2023-03-04T08:00:13.605Z,100.00
2023-03-04T08:02:40.535Z,100.00
2023-03-04T08:05:09.493Z,100.00
2023-03-04T08:07:36.444Z,100.00
2023-03-04T08:10:04.432Z,100.00
2023-03-04T08:12:30.972Z,100.00
2023-03-04T08:14:57.492Z,100.00
2023-03-04T08:17:29.768Z,100.00
2023-03-04T08:19:56.356Z,100.00
2023-03-04T08:22:27.869Z,100.00
2023-03-04T08:24:54.634Z,100.00
2023-03-04T08:27:21.111Z,100.00
2023-03-04T08:29:47.560Z,100.00
2023-03-04T08:32:14.187Z,100.00
2023-03-04T08:34:45.949Z,100.00
2023-03-04T08:37:12.466Z,100.00
2023-03-04T08:39:39.435Z,100.00
2023-03-04T08:42:06.989Z,100.00
2023-03-04T08:44:33.445Z,100.00
2023-03-04T08:46:59.930Z,100.00
2023-03-04T08:49:27.411Z,100.00
2023-03-04T08:51:55.957Z,100.00
2023-03-04T08:54:23.474Z,100.00
2023-03-04T08:56:49.955Z,100.00
2023-03-04T08:59:16.423Z,100.00
2023-03-04T09:01:42.950Z,100.00
2023-03-04T09:04:09.546Z,100.00
2023-03-04T09:06:36.127Z,100.00
2023-03-04T09:09:04.071Z,100.00
2023-03-04T09:11:31.309Z,100.00
2023-03-04T09:13:57.908Z,100.00
2023-03-04T09:16:24.518Z,100.00
2023-03-04T09:18:51.008Z,100.00
2023-03-04T09:21:18.678Z,100.00
2023-03-04T09:23:54.262Z,100.00
2023-03-04T09:26:24.929Z,100.00
2023-03-04T09:28:57.280Z,100.00
2023-03-04T09:31:24.942Z,100.00
2023-03-04T09:33:52.913Z,97.75
2023-03-04T09:36:19.702Z,100.00
2023-03-04T09:38:48.461Z,100.00
2023-03-04T09:41:40.167Z,100.00
2023-03-04T09:44:24.507Z,99.98
2023-03-04T09:46:58.965Z,98.36
2023-03-04T09:49:26.532Z,98.43
2023-03-04T09:51:58.304Z,96.66
2023-03-04T09:54:51.286Z,97.15
2023-03-04T09:57:30.063Z,93.02
2023-03-04T10:00:13.778Z,92.56
2023-03-04T10:02:41.329Z,91.58
2023-03-04T10:05:13.278Z,94.41
2023-03-04T10:07:42.914Z,95.07
2023-03-04T10:10:33.880Z,91.38
2023-03-04T10:13:03.025Z,92.47
2023-03-04T10:30:37.637Z,84.31
2023-03-04T10:33:12.285Z,87.48
2023-03-04T10:35:38.874Z,88.00
2023-03-04T10:38:06.920Z,83.76
2023-03-04T10:40:39.198Z,88.44
2023-03-04T10:43:21.591Z,86.78
2023-03-04T10:45:58.689Z,89.30
2023-03-04T10:48:28.946Z,88.96
2023-03-04T10:51:12.451Z,90.10
2023-03-04T10:53:43.111Z,83.60
2023-03-04T10:56:38.969Z,83.26
2023-03-04T10:59:36.482Z,86.83
2023-03-04T11:02:17.505Z,85.49
2023-03-04T11:05:06.639Z,86.35
2023-03-04T11:07:53.983Z,89.54
2023-03-04T11:10:40.866Z,87.66
2023-03-04T11:13:13.382Z,87.33
2023-03-04T11:16:05.132Z,84.28
2023-03-04T11:18:47.065Z,88.02
2023-03-04T11:21:43.228Z,86.21
2023-03-04T11:24:29.389Z,85.16
2023-03-04T11:27:17.618Z,84.73
2023-03-04T11:29:56.720Z,87.08
2023-03-04T11:32:27.912Z,86.78
2023-03-04T11:35:15.833Z,83.07
2023-03-04T11:37:59.769Z,87.06
2023-03-04T11:40:39.012Z,84.76
2023-03-04T11:43:21.705Z,86.28
2023-03-04T11:46:00.684Z,84.73
2023-03-04T11:48:45.153Z,84.24
2023-03-04T11:51:28.909Z,85.25
2023-03-04T11:54:17.224Z,83.21
2023-03-04T11:56:45.740Z,83.21
2023-03-04T11:59:30.836Z,82.65
2023-03-04T12:02:19.445Z,82.49
2023-03-04T12:05:20.280Z,84.00
2023-03-04T12:08:13.499Z,86.65
2023-03-04T12:10:50.929Z,84.50
2023-03-04T12:13:45.340Z,85.90
2023-03-04T12:16:40.634Z,81.44
2023-03-04T12:19:21.237Z,86.45
2023-03-04T12:22:27.292Z,85.28
2023-03-04T12:25:06.457Z,84.79
2023-03-04T12:27:54.059Z,83.41
2023-03-04T12:30:51.726Z,80.70
2023-03-04T12:33:39.976Z,83.29
2023-03-04T12:36:26.453Z,85.14
2023-03-04T12:39:01.566Z,84.14
2023-03-04T12:41:39.682Z,82.54
2023-03-04T12:44:19.347Z,82.91
2023-03-04T12:47:07.019Z,83.52
2023-03-04T12:49:58.237Z,80.63
2023-03-04T12:52:46.229Z,80.34
2023-03-04T12:55:18.277Z,82.15
2023-03-04T12:57:45.633Z,80.12
2023-03-04T13:00:32.098Z,83.71
2023-03-04T13:03:33.723Z,83.13
2023-03-04T13:06:15.230Z,80.68
2023-03-04T13:09:05.583Z,80.12
2023-03-04T13:11:39.705Z,82.40
2023-03-04T13:14:22.277Z,83.28
2023-03-04T13:16:54.212Z,82.13
2023-03-04T13:19:41.710Z,83.22
2023-03-04T13:22:26.830Z,81.38
2023-03-04T13:24:53.721Z,81.61
2023-03-04T13:27:48.755Z,78.97
2023-03-04T13:30:34.463Z,80.05
2023-03-04T13:33:16.346Z,81.27
2023-03-04T13:35:51.793Z,81.42
2023-03-04T13:38:28.350Z,82.63
2023-03-04T13:41:17.848Z,80.97
2023-03-04T13:43:45.416Z,81.22
2023-03-04T13:46:21.119Z,80.34
2023-03-04T13:49:00.348Z,81.91
2023-03-04T13:51:30.018Z,79.94
2023-03-04T13:53:59.742Z,80.49
2023-03-04T13:56:59.236Z,81.22
2023-03-04T13:59:35.104Z,82.31
2023-03-04T14:02:14.924Z,82.61
2023-03-04T14:05:03.409Z,81.00
2023-03-04T14:07:32.435Z,82.05
2023-03-04T14:09:59.049Z,81.62
2023-03-04T14:12:27.727Z,83.00
2023-03-04T14:14:57.537Z,80.05
2023-03-04T14:17:31.194Z,80.82
2023-03-04T14:19:57.824Z,81.69
2023-03-04T14:22:39.285Z,79.63
2023-03-04T14:25:22.917Z,80.31
2023-03-04T14:27:50.193Z,79.54
2023-03-04T14:30:41.405Z,80.42
2023-03-04T14:33:15.888Z,80.95
2023-03-04T14:35:48.109Z,80.27
2023-03-04T14:38:34.902Z,80.48
2023-03-04T14:41:10.242Z,81.29
2023-03-04T14:43:44.781Z,84.22
2023-03-04T14:46:15.087Z,82.64
2023-03-04T14:48:47.557Z,81.64
2023-03-04T14:51:41.682Z,81.53
2023-03-04T14:54:26.766Z,83.78
2023-03-04T14:56:53.228Z,84.08
2023-03-04T14:59:29.185Z,84.48
2023-03-04T15:02:15.042Z,83.33
2023-03-04T15:04:41.944Z,83.32
2023-03-04T15:07:16.473Z,84.41
2023-03-04T15:09:49.744Z,83.28
2023-03-04T15:12:24.537Z,82.74
2023-03-04T15:14:56.764Z,83.90
2023-03-04T15:17:26.368Z,84.62
2023-03-04T15:20:01.584Z,84.70
2023-03-04T15:22:28.107Z,84.73
2023-03-04T15:24:54.534Z,85.80
2023-03-04T15:27:24.381Z,84.28
2023-03-04T15:29:56.049Z,85.63
2023-03-04T15:32:27.164Z,86.80
2023-03-04T15:34:53.720Z,85.99
2023-03-04T15:37:27.104Z,85.44
2023-03-04T15:39:56.852Z,86.32
2023-03-04T15:42:23.866Z,85.95
2023-03-04T15:44:50.572Z,85.79
2023-03-04T15:47:17.354Z,86.84
2023-03-04T15:49:47.425Z,86.53
2023-03-04T15:52:17.741Z,87.84
2023-03-04T15:54:44.900Z,87.04
2023-03-04T15:57:21.512Z,86.45
2023-03-04T15:59:48.005Z,85.60
2023-03-04T16:02:24.684Z,85.99
2023-03-04T16:04:51.149Z,87.71
2023-03-04T16:07:24.476Z,87.50
2023-03-04T16:09:59.598Z,88.28
2023-03-04T16:12:27.664Z,90.14
2023-03-04T16:14:54.335Z,88.63
2023-03-04T16:17:20.865Z,87.53
2023-03-04T16:19:47.563Z,87.32
2023-03-04T16:22:24.469Z,88.00
2023-03-04T16:24:52.144Z,88.55
2023-03-04T16:27:22.253Z,88.79
2023-03-04T16:29:48.659Z,88.07
2023-03-04T16:32:15.179Z,88.74
2023-03-04T16:34:41.693Z,86.14
2023-03-04T16:37:15.824Z,87.90
2023-03-04T16:39:46.094Z,86.44
2023-03-04T16:42:16.202Z,87.75
2023-03-04T16:44:50.219Z,86.87
2023-03-04T16:47:16.890Z,88.47
2023-03-04T16:49:43.372Z,87.25
2023-03-04T16:52:27.453Z,87.10
2023-03-04T16:54:53.874Z,88.13
2023-03-04T16:57:20.313Z,88.79
2023-03-04T16:59:47.604Z,87.71
2023-03-04T17:02:19.784Z,87.71
2023-03-04T17:04:48.464Z,87.39
2023-03-04T17:07:15.401Z,87.93
2023-03-04T17:09:42.454Z,87.53
2023-03-04T17:12:11.893Z,88.37
2023-03-04T17:14:39.336Z,88.41
2023-03-04T17:17:06.892Z,88.20
2023-03-04T17:19:33.640Z,90.22
2023-03-04T17:22:01.418Z,90.09
2023-03-04T17:24:28.217Z,90.30
2023-03-04T17:26:54.802Z,91.40
2023-03-04T17:29:21.302Z,91.61
2023-03-04T17:31:48.018Z,91.46
2023-03-04T17:34:14.714Z,91.57
2023-03-04T17:36:42.501Z,92.14
2023-03-04T17:39:09.131Z,91.63
2023-03-04T17:41:36.930Z,93.68
2023-03-04T17:44:03.748Z,94.75
2023-03-04T17:46:30.236Z,95.23
2023-03-04T17:49:01.865Z,95.65
2023-03-04T17:51:33.539Z,95.04
2023-03-04T17:54:01.330Z,96.49
2023-03-04T17:56:31.423Z,96.73
2023-03-04T17:59:00.491Z,94.69
2023-03-04T18:01:27.427Z,97.62
2023-03-04T18:03:55.308Z,96.23
2023-03-04T18:06:25.328Z,97.83
2023-03-04T18:08:52.961Z,96.86
2023-03-04T18:11:23.397Z,97.83
2023-03-04T18:13:50.008Z,96.97
2023-03-04T18:16:23.053Z,96.20
2023-03-04T18:18:50.890Z,95.69
2023-03-04T18:21:18.484Z,95.53
2023-03-04T18:23:46.941Z,96.80
2023-03-04T18:26:13.624Z,96.11
2023-03-04T18:28:40.186Z,98.02
2023-03-04T18:31:07.120Z,97.68
2023-03-04T18:33:34.325Z,98.20
2023-03-04T18:36:03.598Z,99.50
2023-03-04T18:38:31.245Z,96.64
2023-03-04T18:41:04.403Z,99.44
2023-03-04T18:43:36.181Z,99.54
2023-03-04T18:46:04.192Z,99.17
2023-03-04T18:48:36.634Z,98.30
2023-03-04T18:51:07.644Z,99.53
2023-03-04T18:53:35.083Z,99.46
2023-03-04T18:56:07.963Z,99.17
2023-03-04T18:58:38.755Z,99.35
2023-03-04T19:01:07.721Z,99.57
2023-03-04T19:03:37.585Z,95.16
2023-03-04T19:06:05.822Z,96.49
2023-03-04T19:08:34.908Z,99.56
2023-03-04T19:11:01.591Z,98.57
2023-03-04T19:13:30.525Z,100.00
2023-03-04T19:15:57.317Z,100.00
2023-03-04T19:18:23.912Z,100.00
2023-03-04T19:21:00.722Z,100.00
2023-03-04T19:23:27.566Z,100.00
2023-03-04T19:25:54.008Z,100.00
2023-03-04T19:28:20.537Z,100.00
2023-03-04T19:30:47.205Z,100.00
2023-03-04T19:33:14.753Z,100.00
2023-03-04T19:35:43.408Z,100.00
2023-03-04T19:38:09.956Z,100.00
2023-03-04T19:40:46.726Z,100.00
2023-03-04T19:43:15.062Z,100.00
2023-03-04T19:45:43.699Z,100.00
2023-03-04T19:48:10.207Z,100.00
2023-03-04T19:50:36.621Z,100.00
2023-03-04T19:53:03.099Z,100.00
2023-03-04T19:55:29.561Z,100.00
2023-03-04T19:57:55.984Z,100.00
2023-03-04T20:00:24.078Z,100.00
2023-03-04T20:02:51.101Z,100.00
2023-03-04T20:05:20.270Z,100.00
2023-03-04T20:07:46.745Z,100.00
2023-03-04T20:10:18.824Z,100.00
2023-03-04T20:12:45.545Z,100.00
2023-03-04T20:15:12.055Z,99.77
2023-03-04T20:17:38.680Z,100.00
2023-03-04T20:20:05.720Z,100.00
2023-03-04T20:22:32.397Z,100.00
2023-03-04T20:24:58.961Z,100.00
2023-03-04T20:27:26.527Z,100.00
2023-03-04T20:29:53.565Z,100.00
2023-03-04T20:32:20.088Z,100.00
2023-03-04T20:34:47.952Z,100.00
2023-03-04T20:37:15.984Z,100.00
2023-03-04T20:39:42.412Z,100.00
2023-03-04T20:42:09.387Z,99.98
2023-03-04T20:44:36.034Z,99.50
2023-03-04T20:47:02.566Z,100.00
2023-03-04T20:49:29.806Z,99.98
2023-03-04T20:52:03.033Z,98.44
2023-03-04T20:54:30.849Z,100.00
2023-03-04T20:56:57.527Z,100.00
2023-03-04T20:59:24.406Z,100.00
2023-03-04T21:01:52.563Z,100.00
2023-03-04T21:04:19.852Z,100.00
2023-03-04T21:06:48.391Z,100.00
2023-03-04T21:09:17.943Z,100.00
2023-03-04T21:11:45.143Z,100.00
2023-03-04T21:14:22.211Z,100.00
2023-03-04T21:16:51.293Z,100.00
2023-03-04T21:19:25.213Z,100.00
2023-03-04T21:21:52.288Z,100.00
2023-03-04T21:24:22.053Z,100.00
2023-03-04T21:26:49.010Z,99.48
2023-03-04T21:29:18.048Z,100.00
2023-03-04T21:31:52.197Z,100.00
2023-03-04T21:34:30.501Z,100.00
2023-03-04T21:36:57.037Z,100.00
2023-03-04T21:39:24.846Z,100.00
2023-03-04T21:41:52.686Z,100.00
2023-03-04T21:44:33.334Z,100.00
2023-03-04T21:47:01.888Z,100.00
2023-03-04T21:49:28.629Z,100.00
2023-03-04T21:51:55.289Z,100.00
2023-03-04T21:54:22.064Z,100.00
2023-03-04T21:56:50.179Z,100.00
2023-03-04T21:59:19.645Z,100.00
2023-03-04T22:01:46.277Z,100.00
2023-03-04T22:04:13.249Z,100.00
2023-03-04T22:06:40.876Z,100.00
2023-03-04T22:09:07.824Z,100.00
2023-03-04T22:11:34.591Z,100.00
2023-03-04T22:14:02.706Z,100.00
2023-03-04T22:16:30.254Z,100.00
2023-03-04T22:18:57.892Z,100.00
2023-03-04T22:21:24.472Z,100.00
2023-03-04T22:23:51.059Z,100.00
2023-03-04T22:26:23.222Z,100.00
2023-03-04T22:28:49.635Z,100.00
2023-03-04T22:31:26.298Z,100.00
2023-03-04T22:33:52.761Z,100.00
2023-03-04T22:36:19.247Z,100.00
2023-03-04T22:38:46.780Z,100.00
2023-03-04T22:41:18.196Z,100.00
2023-03-04T22:43:49.803Z,100.00
2023-03-04T22:46:22.510Z,100.00
2023-03-04T22:48:54.155Z,100.00
2023-03-04T22:51:20.967Z,100.00
2023-03-04T22:53:48.969Z,100.00
2023-03-04T22:56:16.146Z,100.00
2023-03-04T22:58:44.352Z,100.00
2023-03-04T23:01:12.240Z,100.00
2023-03-04T23:03:40.394Z,100.00
2023-03-04T23:06:08.321Z,100.00
2023-03-04T23:08:37.386Z,100.00
2023-03-04T23:11:10.334Z,100.00
2023-03-04T23:13:37.980Z,100.00
2023-03-04T23:16:07.943Z,100.00
2023-03-04T23:18:39.275Z,100.00
2023-03-04T23:21:07.736Z,100.00
2023-03-04T23:23:34.454Z,100.00
2023-03-04T23:26:01.675Z,100.00
2023-03-04T23:28:28.485Z,100.00
2023-03-04T23:30:55.143Z,100.00
2023-03-04T23:33:21.593Z,100.00
2023-03-04T23:35:51.197Z,100.00
2023-03-04T23:38:17.597Z,100.00
2023-03-04T23:40:44.060Z,100.00
2023-03-04T23:43:10.548Z,100.00
2023-03-04T23:45:38.018Z,100.00
2023-03-04T23:48:04.788Z,100.00
2023-03-04T23:50:32.198Z,100.00
2023-03-04T23:52:58.713Z,100.00
2023-03-04T23:55:25.248Z,100.00
2023-03-04T23:57:54.066Z,100.00
